sensor_id;sensor_type;location;lat;lon;timestamp;P1;durP1;ratioP1;P2;durP2;ratioP2
42104;SDS011;68365;51.472;5.712;2023-04-10T00:00:08;29.88;;;17.15;;
42104;SDS011;68365;51.472;5.712;2023-04-10T00:02:34;28.48;;;16.58;;
42104;SDS011;68365;51.472;5.712;2023-04-10T00:05:04;27.85;;;16.55;;
42104;SDS011;68365;51.472;5.712;2023-04-10T00:07:31;26.27;;;15.80;;
42104;SDS011;68365;51.472;5.712;2023-04-10T00:09:58;27.92;;;16.50;;
42104;SDS011;68365;51.472;5.712;2023-04-10T00:12:23;25.38;;;15.77;;
42104;SDS011;68365;51.472;5.712;2023-04-10T00:14:50;26.13;;;16.13;;
42104;SDS011;68365;51.472;5.712;2023-04-10T00:17:15;26.63;;;16.13;;
42104;SDS011;68365;51.472;5.712;2023-04-10T00:19:42;25.77;;;15.15;;
42104;SDS011;68365;51.472;5.712;2023-04-10T00:22:08;26.08;;;15.68;;
42104;SDS011;68365;51.472;5.712;2023-04-10T00:24:34;26.15;;;15.60;;
42104;SDS011;68365;51.472;5.712;2023-04-10T00:27:00;25.30;;;15.15;;
42104;SDS011;68365;51.472;5.712;2023-04-10T00:29:26;22.75;;;14.05;;
42104;SDS011;68365;51.472;5.712;2023-04-10T00:31:51;25.50;;;14.95;;
42104;SDS011;68365;51.472;5.712;2023-04-10T00:34:17;25.30;;;15.13;;
42104;SDS011;68365;51.472;5.712;2023-04-10T00:36:44;21.48;;;14.15;;
42104;SDS011;68365;51.472;5.712;2023-04-10T00:39:11;23.15;;;14.15;;
42104;SDS011;68365;51.472;5.712;2023-04-10T00:41:38;23.88;;;13.82;;
42104;SDS011;68365;51.472;5.712;2023-04-10T00:44:04;26.60;;;14.85;;
42104;SDS011;68365;51.472;5.712;2023-04-10T00:46:30;22.77;;;13.57;;
42104;SDS011;68365;51.472;5.712;2023-04-10T00:48:56;23.75;;;13.82;;
42104;SDS011;68365;51.472;5.712;2023-04-10T00:51:23;22.63;;;13.45;;
42104;SDS011;68365;51.472;5.712;2023-04-10T00:53:49;22.25;;;13.93;;
42104;SDS011;68365;51.472;5.712;2023-04-10T00:56:16;20.45;;;13.60;;
42104;SDS011;68365;51.472;5.712;2023-04-10T00:58:43;20.77;;;13.35;;
42104;SDS011;68365;51.472;5.712;2023-04-10T01:01:09;21.38;;;12.95;;
42104;SDS011;68365;51.472;5.712;2023-04-10T01:03:35;23.08;;;13.48;;
42104;SDS011;68365;51.472;5.712;2023-04-10T01:06:05;20.67;;;12.80;;
42104;SDS011;68365;51.472;5.712;2023-04-10T01:11:19;21.75;;;13.10;;
42104;SDS011;68365;51.472;5.712;2023-04-10T01:14:15;20.08;;;12.27;;
42104;SDS011;68365;51.472;5.712;2023-04-10T01:17:21;19.52;;;12.13;;
42104;SDS011;68365;51.472;5.712;2023-04-10T01:20:06;19.50;;;12.07;;
42104;SDS011;68365;51.472;5.712;2023-04-10T01:30:42;18.13;;;11.50;;
42104;SDS011;68365;51.472;5.712;2023-04-10T01:33:17;19.92;;;11.93;;
42104;SDS011;68365;51.472;5.712;2023-04-10T01:35:47;17.88;;;11.30;;
42104;SDS011;68365;51.472;5.712;2023-04-10T01:38:17;18.65;;;11.93;;
42104;SDS011;68365;51.472;5.712;2023-04-10T01:40:46;17.40;;;10.80;;
42104;SDS011;68365;51.472;5.712;2023-04-10T01:43:18;19.23;;;11.27;;
42104;SDS011;68365;51.472;5.712;2023-04-10T01:45:46;17.55;;;11.02;;
42104;SDS011;68365;51.472;5.712;2023-04-10T01:48:15;17.10;;;10.52;;
42104;SDS011;68365;51.472;5.712;2023-04-10T01:50:42;16.73;;;10.77;;
42104;SDS011;68365;51.472;5.712;2023-04-10T01:53:10;17.05;;;10.98;;
42104;SDS011;68365;51.472;5.712;2023-04-10T01:55:37;16.75;;;10.63;;
42104;SDS011;68365;51.472;5.712;2023-04-10T01:58:03;16.75;;;10.35;;
42104;SDS011;68365;51.472;5.712;2023-04-10T02:00:36;16.45;;;9.85;;
42104;SDS011;68365;51.472;5.712;2023-04-10T02:03:06;17.05;;;10.35;;
42104;SDS011;68365;51.472;5.712;2023-04-10T02:06:17;15.35;;;10.25;;
42104;SDS011;68365;51.472;5.712;2023-04-10T02:11:33;13.73;;;9.15;;
42104;SDS011;68365;51.472;5.712;2023-04-10T02:14:11;13.80;;;9.43;;
42104;SDS011;68365;51.472;5.712;2023-04-10T02:16:44;14.55;;;10.05;;
42104;SDS011;68365;51.472;5.712;2023-04-10T02:19:11;14.07;;;9.82;;
42104;SDS011;68365;51.472;5.712;2023-04-10T02:21:37;14.82;;;9.45;;
42104;SDS011;68365;51.472;5.712;2023-04-10T02:24:06;13.80;;;9.05;;
42104;SDS011;68365;51.472;5.712;2023-04-10T02:26:44;15.00;;;9.73;;
42104;SDS011;68365;51.472;5.712;2023-04-10T02:29:12;14.23;;;9.27;;
42104;SDS011;68365;51.472;5.712;2023-04-10T02:31:38;15.18;;;9.30;;
42104;SDS011;68365;51.472;5.712;2023-04-10T02:34:05;14.95;;;9.05;;
42104;SDS011;68365;51.472;5.712;2023-04-10T02:36:35;13.43;;;9.10;;
42104;SDS011;68365;51.472;5.712;2023-04-10T02:39:03;13.30;;;9.27;;
42104;SDS011;68365;51.472;5.712;2023-04-10T02:41:29;15.10;;;9.35;;
42104;SDS011;68365;51.472;5.712;2023-04-10T02:43:55;14.75;;;9.27;;
42104;SDS011;68365;51.472;5.712;2023-04-10T02:46:21;12.43;;;8.70;;
42104;SDS011;68365;51.472;5.712;2023-04-10T02:48:47;15.15;;;9.23;;
42104;SDS011;68365;51.472;5.712;2023-04-10T02:51:13;12.25;;;8.13;;
42104;SDS011;68365;51.472;5.712;2023-04-10T02:53:38;13.85;;;8.85;;
42104;SDS011;68365;51.472;5.712;2023-04-10T02:56:05;12.88;;;8.75;;
42104;SDS011;68365;51.472;5.712;2023-04-10T02:58:32;11.38;;;8.32;;
42104;SDS011;68365;51.472;5.712;2023-04-10T03:00:58;13.05;;;8.10;;
42104;SDS011;68365;51.472;5.712;2023-04-10T03:03:24;12.75;;;8.27;;
42104;SDS011;68365;51.472;5.712;2023-04-10T03:05:50;12.05;;;8.48;;
42104;SDS011;68365;51.472;5.712;2023-04-10T03:08:16;13.13;;;8.25;;
42104;SDS011;68365;51.472;5.712;2023-04-10T03:10:43;10.63;;;8.05;;
42104;SDS011;68365;51.472;5.712;2023-04-10T03:13:10;11.35;;;8.35;;
42104;SDS011;68365;51.472;5.712;2023-04-10T03:15:36;11.80;;;8.27;;
42104;SDS011;68365;51.472;5.712;2023-04-10T03:18:03;11.85;;;7.78;;
42104;SDS011;68365;51.472;5.712;2023-04-10T03:20:30;11.43;;;7.88;;
42104;SDS011;68365;51.472;5.712;2023-04-10T03:22:57;10.93;;;7.35;;
42104;SDS011;68365;51.472;5.712;2023-04-10T03:25:27;10.60;;;7.68;;
42104;SDS011;68365;51.472;5.712;2023-04-10T03:27:52;12.27;;;8.10;;
42104;SDS011;68365;51.472;5.712;2023-04-10T03:30:18;9.77;;;7.53;;
42104;SDS011;68365;51.472;5.712;2023-04-10T03:32:44;11.77;;;8.05;;
42104;SDS011;68365;51.472;5.712;2023-04-10T03:35:10;11.52;;;6.95;;
42104;SDS011;68365;51.472;5.712;2023-04-10T03:37:36;11.27;;;7.30;;
42104;SDS011;68365;51.472;5.712;2023-04-10T03:40:06;11.40;;;7.72;;
42104;SDS011;68365;51.472;5.712;2023-04-10T03:42:33;9.68;;;7.38;;
42104;SDS011;68365;51.472;5.712;2023-04-10T03:44:59;10.23;;;7.13;;
42104;SDS011;68365;51.472;5.712;2023-04-10T03:47:28;9.55;;;7.05;;
42104;SDS011;68365;51.472;5.712;2023-04-10T03:49:57;9.07;;;6.47;;
42104;SDS011;68365;51.472;5.712;2023-04-10T03:52:23;9.80;;;7.13;;
42104;SDS011;68365;51.472;5.712;2023-04-10T03:54:52;10.48;;;6.82;;
42104;SDS011;68365;51.472;5.712;2023-04-10T03:57:19;9.70;;;6.47;;
42104;SDS011;68365;51.472;5.712;2023-04-10T03:59:48;9.23;;;6.95;;
42104;SDS011;68365;51.472;5.712;2023-04-10T04:02:14;8.57;;;6.38;;
42104;SDS011;68365;51.472;5.712;2023-04-10T04:04:40;9.23;;;6.43;;
42104;SDS011;68365;51.472;5.712;2023-04-10T04:07:05;9.82;;;6.93;;
42104;SDS011;68365;51.472;5.712;2023-04-10T04:09:32;9.40;;;6.80;;
42104;SDS011;68365;51.472;5.712;2023-04-10T04:11:58;9.13;;;6.70;;
42104;SDS011;68365;51.472;5.712;2023-04-10T04:14:24;9.25;;;6.63;;
42104;SDS011;68365;51.472;5.712;2023-04-10T04:16:50;9.18;;;6.35;;
42104;SDS011;68365;51.472;5.712;2023-04-10T04:19:15;8.90;;;6.72;;
42104;SDS011;68365;51.472;5.712;2023-04-10T04:21:41;8.63;;;6.55;;
42104;SDS011;68365;51.472;5.712;2023-04-10T04:24:07;8.90;;;6.07;;
42104;SDS011;68365;51.472;5.712;2023-04-10T04:26:33;8.85;;;6.50;;
42104;SDS011;68365;51.472;5.712;2023-04-10T04:29:00;8.52;;;6.03;;
42104;SDS011;68365;51.472;5.712;2023-04-10T04:31:26;8.07;;;6.10;;
42104;SDS011;68365;51.472;5.712;2023-04-10T04:33:56;9.23;;;6.90;;
42104;SDS011;68365;51.472;5.712;2023-04-10T04:36:26;9.18;;;6.38;;
42104;SDS011;68365;51.472;5.712;2023-04-10T04:38:52;8.65;;;6.47;;
42104;SDS011;68365;51.472;5.712;2023-04-10T04:41:19;8.63;;;6.55;;
42104;SDS011;68365;51.472;5.712;2023-04-10T04:43:45;8.57;;;6.45;;
42104;SDS011;68365;51.472;5.712;2023-04-10T04:46:15;9.05;;;6.38;;
42104;SDS011;68365;51.472;5.712;2023-04-10T04:48:40;10.02;;;6.35;;
42104;SDS011;68365;51.472;5.712;2023-04-10T04:51:06;9.02;;;6.15;;
42104;SDS011;68365;51.472;5.712;2023-04-10T04:53:32;7.97;;;5.80;;
42104;SDS011;68365;51.472;5.712;2023-04-10T04:55:58;8.43;;;6.00;;
42104;SDS011;68365;51.472;5.712;2023-04-10T04:58:24;7.57;;;6.15;;
42104;SDS011;68365;51.472;5.712;2023-04-10T05:00:50;7.45;;;5.40;;
42104;SDS011;68365;51.472;5.712;2023-04-10T05:03:16;8.48;;;6.25;;
42104;SDS011;68365;51.472;5.712;2023-04-10T05:05:42;8.82;;;6.18;;
42104;SDS011;68365;51.472;5.712;2023-04-10T05:08:08;8.48;;;5.93;;
42104;SDS011;68365;51.472;5.712;2023-04-10T05:10:34;8.13;;;6.10;;
42104;SDS011;68365;51.472;5.712;2023-04-10T05:13:00;7.20;;;5.65;;
42104;SDS011;68365;51.472;5.712;2023-04-10T05:15:26;8.40;;;6.22;;
42104;SDS011;68365;51.472;5.712;2023-04-10T05:17:52;7.03;;;5.63;;
42104;SDS011;68365;51.472;5.712;2023-04-10T05:20:18;7.47;;;5.45;;
42104;SDS011;68365;51.472;5.712;2023-04-10T05:22:45;8.27;;;6.20;;
42104;SDS011;68365;51.472;5.712;2023-04-10T05:25:12;7.50;;;5.78;;
42104;SDS011;68365;51.472;5.712;2023-04-10T05:27:38;7.32;;;5.95;;
42104;SDS011;68365;51.472;5.712;2023-04-10T05:30:04;7.25;;;5.63;;
42104;SDS011;68365;51.472;5.712;2023-04-10T05:32:31;7.18;;;5.55;;
42104;SDS011;68365;51.472;5.712;2023-04-10T05:34:56;7.47;;;5.57;;
42104;SDS011;68365;51.472;5.712;2023-04-10T05:37:22;6.65;;;5.18;;
42104;SDS011;68365;51.472;5.712;2023-04-10T05:39:48;6.78;;;5.50;;
42104;SDS011;68365;51.472;5.712;2023-04-10T05:42:14;6.70;;;5.25;;
42104;SDS011;68365;51.472;5.712;2023-04-10T05:44:40;6.97;;;5.15;;
42104;SDS011;68365;51.472;5.712;2023-04-10T05:47:06;6.63;;;5.28;;
42104;SDS011;68365;51.472;5.712;2023-04-10T05:49:32;6.43;;;5.13;;
42104;SDS011;68365;51.472;5.712;2023-04-10T05:51:57;6.88;;;5.32;;
42104;SDS011;68365;51.472;5.712;2023-04-10T05:54:23;6.85;;;5.40;;
42104;SDS011;68365;51.472;5.712;2023-04-10T05:56:49;7.43;;;5.53;;
42104;SDS011;68365;51.472;5.712;2023-04-10T05:59:15;6.68;;;5.30;;
42104;SDS011;68365;51.472;5.712;2023-04-10T06:01:41;7.32;;;5.35;;
42104;SDS011;68365;51.472;5.712;2023-04-10T06:04:08;7.93;;;4.97;;
42104;SDS011;68365;51.472;5.712;2023-04-10T06:06:35;7.10;;;5.18;;
42104;SDS011;68365;51.472;5.712;2023-04-10T06:09:02;6.32;;;5.03;;
42104;SDS011;68365;51.472;5.712;2023-04-10T06:11:28;6.35;;;5.00;;
42104;SDS011;68365;51.472;5.712;2023-04-10T06:13:54;5.72;;;5.13;;
42104;SDS011;68365;51.472;5.712;2023-04-10T06:16:20;6.65;;;5.28;;
42104;SDS011;68365;51.472;5.712;2023-04-10T06:18:46;6.15;;;4.90;;
42104;SDS011;68365;51.472;5.712;2023-04-10T06:21:12;6.47;;;5.55;;
42104;SDS011;68365;51.472;5.712;2023-04-10T06:23:38;6.60;;;5.38;;
42104;SDS011;68365;51.472;5.712;2023-04-10T06:26:04;6.68;;;5.40;;
42104;SDS011;68365;51.472;5.712;2023-04-10T06:28:30;6.75;;;5.45;;
42104;SDS011;68365;51.472;5.712;2023-04-10T06:30:56;5.35;;;4.40;;
42104;SDS011;68365;51.472;5.712;2023-04-10T06:33:22;6.57;;;5.00;;
42104;SDS011;68365;51.472;5.712;2023-04-10T06:35:48;6.10;;;4.97;;
42104;SDS011;68365;51.472;5.712;2023-04-10T06:38:15;7.03;;;5.38;;
42104;SDS011;68365;51.472;5.712;2023-04-10T06:40:41;6.68;;;5.10;;
42104;SDS011;68365;51.472;5.712;2023-04-10T06:43:07;6.45;;;5.20;;
42104;SDS011;68365;51.472;5.712;2023-04-10T06:45:32;5.93;;;4.85;;
42104;SDS011;68365;51.472;5.712;2023-04-10T06:47:58;6.50;;;4.95;;
42104;SDS011;68365;51.472;5.712;2023-04-10T06:50:24;6.45;;;4.90;;
42104;SDS011;68365;51.472;5.712;2023-04-10T06:52:50;6.22;;;5.10;;
42104;SDS011;68365;51.472;5.712;2023-04-10T06:55:19;6.15;;;4.63;;
42104;SDS011;68365;51.472;5.712;2023-04-10T06:57:45;6.13;;;4.93;;
42104;SDS011;68365;51.472;5.712;2023-04-10T07:00:12;6.28;;;5.13;;
42104;SDS011;68365;51.472;5.712;2023-04-10T07:02:38;6.07;;;4.93;;
42104;SDS011;68365;51.472;5.712;2023-04-10T07:05:04;7.85;;;4.90;;
42104;SDS011;68365;51.472;5.712;2023-04-10T07:07:30;6.85;;;4.80;;
42104;SDS011;68365;51.472;5.712;2023-04-10T07:09:56;6.25;;;5.07;;
42104;SDS011;68365;51.472;5.712;2023-04-10T07:12:22;6.43;;;4.70;;
42104;SDS011;68365;51.472;5.712;2023-04-10T07:14:48;6.85;;;5.22;;
42104;SDS011;68365;51.472;5.712;2023-04-10T07:17:14;5.80;;;4.75;;
42104;SDS011;68365;51.472;5.712;2023-04-10T07:19:40;7.40;;;5.25;;
42104;SDS011;68365;51.472;5.712;2023-04-10T07:22:05;6.38;;;4.50;;
42104;SDS011;68365;51.472;5.712;2023-04-10T07:24:31;8.85;;;4.93;;
42104;SDS011;68365;51.472;5.712;2023-04-10T07:26:57;5.63;;;4.70;;
42104;SDS011;68365;51.472;5.712;2023-04-10T07:29:24;5.28;;;4.78;;
42104;SDS011;68365;51.472;5.712;2023-04-10T07:31:50;6.00;;;4.45;;
42104;SDS011;68365;51.472;5.712;2023-04-10T07:34:16;5.50;;;4.75;;
42104;SDS011;68365;51.472;5.712;2023-04-10T07:36:42;5.93;;;4.75;;
42104;SDS011;68365;51.472;5.712;2023-04-10T07:39:08;7.78;;;4.93;;
42104;SDS011;68365;51.472;5.712;2023-04-10T07:41:33;5.55;;;4.75;;
42104;SDS011;68365;51.472;5.712;2023-04-10T07:43:59;6.50;;;4.82;;
42104;SDS011;68365;51.472;5.712;2023-04-10T07:46:25;6.13;;;5.03;;
42104;SDS011;68365;51.472;5.712;2023-04-10T07:48:51;6.20;;;4.97;;
42104;SDS011;68365;51.472;5.712;2023-04-10T07:51:19;8.80;;;4.90;;
42104;SDS011;68365;51.472;5.712;2023-04-10T07:53:45;6.57;;;4.72;;
42104;SDS011;68365;51.472;5.712;2023-04-10T07:56:15;5.25;;;4.70;;
42104;SDS011;68365;51.472;5.712;2023-04-10T07:58:43;5.22;;;4.53;;
42104;SDS011;68365;51.472;5.712;2023-04-10T08:01:09;5.35;;;4.38;;
42104;SDS011;68365;51.472;5.712;2023-04-10T08:03:39;5.72;;;4.60;;
42104;SDS011;68365;51.472;5.712;2023-04-10T08:06:07;6.25;;;4.80;;
42104;SDS011;68365;51.472;5.712;2023-04-10T08:08:34;5.75;;;4.43;;
42104;SDS011;68365;51.472;5.712;2023-04-10T08:11:02;6.40;;;4.82;;
42104;SDS011;68365;51.472;5.712;2023-04-10T08:13:32;5.50;;;4.70;;
42104;SDS011;68365;51.472;5.712;2023-04-10T08:15:58;5.20;;;4.18;;
42104;SDS011;68365;51.472;5.712;2023-04-10T08:18:24;4.70;;;4.15;;
42104;SDS011;68365;51.472;5.712;2023-04-10T08:20:50;5.55;;;4.38;;
42104;SDS011;68365;51.472;5.712;2023-04-10T08:23:15;4.75;;;4.10;;
42104;SDS011;68365;51.472;5.712;2023-04-10T08:25:41;6.90;;;4.63;;
42104;SDS011;68365;51.472;5.712;2023-04-10T08:28:07;5.38;;;4.82;;
42104;SDS011;68365;51.472;5.712;2023-04-10T08:30:33;6.22;;;4.40;;
42104;SDS011;68365;51.472;5.712;2023-04-10T08:32:58;5.63;;;4.53;;
42104;SDS011;68365;51.472;5.712;2023-04-10T08:35:24;5.28;;;4.50;;
42104;SDS011;68365;51.472;5.712;2023-04-10T08:37:50;7.07;;;4.75;;
42104;SDS011;68365;51.472;5.712;2023-04-10T08:40:16;6.10;;;4.63;;
42104;SDS011;68365;51.472;5.712;2023-04-10T08:42:42;6.82;;;4.60;;
42104;SDS011;68365;51.472;5.712;2023-04-10T08:45:07;5.50;;;4.45;;
42104;SDS011;68365;51.472;5.712;2023-04-10T08:47:35;5.07;;;4.28;;
42104;SDS011;68365;51.472;5.712;2023-04-10T08:50:06;5.13;;;4.40;;
42104;SDS011;68365;51.472;5.712;2023-04-10T08:52:37;5.20;;;4.38;;
42104;SDS011;68365;51.472;5.712;2023-04-10T08:55:09;5.43;;;4.57;;
42104;SDS011;68365;51.472;5.712;2023-04-10T08:57:39;5.70;;;4.70;;
42104;SDS011;68365;51.472;5.712;2023-04-10T09:00:05;6.63;;;4.75;;
42104;SDS011;68365;51.472;5.712;2023-04-10T09:02:32;6.00;;;4.43;;
42104;SDS011;68365;51.472;5.712;2023-04-10T09:04:58;8.00;;;4.68;;
42104;SDS011;68365;51.472;5.712;2023-04-10T09:07:26;4.78;;;4.28;;
42104;SDS011;68365;51.472;5.712;2023-04-10T09:09:52;7.03;;;4.63;;
42104;SDS011;68365;51.472;5.712;2023-04-10T09:12:18;5.60;;;4.13;;
42104;SDS011;68365;51.472;5.712;2023-04-10T09:14:44;6.55;;;4.25;;
42104;SDS011;68365;51.472;5.712;2023-04-10T09:17:17;6.47;;;4.70;;
42104;SDS011;68365;51.472;5.712;2023-04-10T09:19:50;11.13;;;4.47;;
42104;SDS011;68365;51.472;5.712;2023-04-10T09:22:32;6.90;;;4.47;;
42104;SDS011;68365;51.472;5.712;2023-04-10T09:25:00;11.00;;;4.70;;
42104;SDS011;68365;51.472;5.712;2023-04-10T09:30:02;6.50;;;4.47;;
42104;SDS011;68365;51.472;5.712;2023-04-10T09:32:44;7.95;;;4.32;;
42104;SDS011;68365;51.472;5.712;2023-04-10T09:35:13;9.43;;;5.20;;
42104;SDS011;68365;51.472;5.712;2023-04-10T09:37:40;6.95;;;4.85;;
42104;SDS011;68365;51.472;5.712;2023-04-10T09:40:18;8.48;;;4.60;;
42104;SDS011;68365;51.472;5.712;2023-04-10T09:42:49;8.38;;;4.70;;
42104;SDS011;68365;51.472;5.712;2023-04-10T09:45:15;7.25;;;4.38;;
42104;SDS011;68365;51.472;5.712;2023-04-10T09:48:05;6.10;;;4.38;;
42104;SDS011;68365;51.472;5.712;2023-04-10T09:50:35;7.88;;;4.80;;
42104;SDS011;68365;51.472;5.712;2023-04-10T09:53:04;9.13;;;4.82;;
42104;SDS011;68365;51.472;5.712;2023-04-10T09:55:33;7.97;;;4.53;;
42104;SDS011;68365;51.472;5.712;2023-04-10T09:58:00;6.88;;;4.75;;
42104;SDS011;68365;51.472;5.712;2023-04-10T10:00:27;7.85;;;4.50;;
42104;SDS011;68365;51.472;5.712;2023-04-10T10:02:53;10.73;;;4.88;;
42104;SDS011;68365;51.472;5.712;2023-04-10T10:05:22;7.03;;;4.60;;
42104;SDS011;68365;51.472;5.712;2023-04-10T10:07:54;7.55;;;4.70;;
42104;SDS011;68365;51.472;5.712;2023-04-10T10:10:21;5.55;;;4.32;;
42104;SDS011;68365;51.472;5.712;2023-04-10T10:12:53;8.10;;;5.18;;
42104;SDS011;68365;51.472;5.712;2023-04-10T10:17:59;6.57;;;4.50;;
42104;SDS011;68365;51.472;5.712;2023-04-10T10:20:37;5.03;;;4.47;;
42104;SDS011;68365;51.472;5.712;2023-04-10T10:23:06;5.47;;;4.38;;
42104;SDS011;68365;51.472;5.712;2023-04-10T10:25:36;6.70;;;4.47;;
42104;SDS011;68365;51.472;5.712;2023-04-10T10:28:03;5.97;;;4.72;;
42104;SDS011;68365;51.472;5.712;2023-04-10T10:30:30;4.90;;;4.40;;
42104;SDS011;68365;51.472;5.712;2023-04-10T10:33:01;7.05;;;4.93;;
42104;SDS011;68365;51.472;5.712;2023-04-10T10:35:33;6.15;;;4.50;;
42104;SDS011;68365;51.472;5.712;2023-04-10T10:38:01;4.93;;;4.43;;
42104;SDS011;68365;51.472;5.712;2023-04-10T10:40:30;6.60;;;4.50;;
42104;SDS011;68365;51.472;5.712;2023-04-10T10:46:32;7.65;;;4.68;;
42104;SDS011;68365;51.472;5.712;2023-04-10T10:49:12;5.63;;;4.70;;
42104;SDS011;68365;51.472;5.712;2023-04-10T10:51:45;5.28;;;4.57;;
42104;SDS011;68365;51.472;5.712;2023-04-10T10:54:31;5.28;;;4.50;;
42104;SDS011;68365;51.472;5.712;2023-04-10T10:56:59;6.28;;;4.78;;
42104;SDS011;68365;51.472;5.712;2023-04-10T11:04:51;6.05;;;4.75;;
42104;SDS011;68365;51.472;5.712;2023-04-10T11:07:17;7.10;;;4.72;;
42104;SDS011;68365;51.472;5.712;2023-04-10T11:13:13;7.80;;;4.90;;
42104;SDS011;68365;51.472;5.712;2023-04-10T11:15:57;5.57;;;4.55;;
42104;SDS011;68365;51.472;5.712;2023-04-10T11:19:02;6.50;;;4.50;;
42104;SDS011;68365;51.472;5.712;2023-04-10T11:21:32;6.20;;;4.45;;
42104;SDS011;68365;51.472;5.712;2023-04-10T11:31:38;6.32;;;4.70;;
42104;SDS011;68365;51.472;5.712;2023-04-10T11:34:06;8.40;;;5.10;;
42104;SDS011;68365;51.472;5.712;2023-04-10T11:36:36;7.22;;;5.30;;
42104;SDS011;68365;51.472;5.712;2023-04-10T11:41:38;8.00;;;5.50;;
42104;SDS011;68365;51.472;5.712;2023-04-10T11:44:10;7.55;;;5.40;;
42104;SDS011;68365;51.472;5.712;2023-04-10T11:46:46;5.78;;;5.03;;
42104;SDS011;68365;51.472;5.712;2023-04-10T11:49:18;8.18;;;5.30;;
42104;SDS011;68365;51.472;5.712;2023-04-10T11:51:52;6.55;;;5.40;;
42104;SDS011;68365;51.472;5.712;2023-04-10T11:54:21;5.72;;;4.85;;
42104;SDS011;68365;51.472;5.712;2023-04-10T11:56:56;6.80;;;4.95;;
42104;SDS011;68365;51.472;5.712;2023-04-10T11:59:38;6.55;;;4.80;;
42104;SDS011;68365;51.472;5.712;2023-04-10T12:02:05;5.50;;;4.78;;
42104;SDS011;68365;51.472;5.712;2023-04-10T12:04:34;5.68;;;4.97;;
42104;SDS011;68365;51.472;5.712;2023-04-10T12:07:00;8.10;;;4.70;;
42104;SDS011;68365;51.472;5.712;2023-04-10T12:09:26;6.72;;;5.15;;
42104;SDS011;68365;51.472;5.712;2023-04-10T12:11:54;5.00;;;4.47;;
42104;SDS011;68365;51.472;5.712;2023-04-10T12:14:30;4.80;;;4.30;;
42104;SDS011;68365;51.472;5.712;2023-04-10T12:16:59;4.95;;;4.45;;
42104;SDS011;68365;51.472;5.712;2023-04-10T12:19:27;5.22;;;4.28;;
42104;SDS011;68365;51.472;5.712;2023-04-10T12:21:54;5.53;;;4.20;;
42104;SDS011;68365;51.472;5.712;2023-04-10T12:27:16;5.10;;;4.60;;
42104;SDS011;68365;51.472;5.712;2023-04-10T12:29:47;4.32;;;3.88;;
42104;SDS011;68365;51.472;5.712;2023-04-10T12:32:15;4.93;;;3.70;;
42104;SDS011;68365;51.472;5.712;2023-04-10T12:34:41;5.15;;;4.20;;
42104;SDS011;68365;51.472;5.712;2023-04-10T12:37:21;5.05;;;4.00;;
42104;SDS011;68365;51.472;5.712;2023-04-10T12:39:47;4.60;;;3.75;;
42104;SDS011;68365;51.472;5.712;2023-04-10T12:42:14;4.10;;;3.60;;
42104;SDS011;68365;51.472;5.712;2023-04-10T12:44:55;3.97;;;3.58;;
42104;SDS011;68365;51.472;5.712;2023-04-10T12:47:23;4.60;;;3.65;;
42104;SDS011;68365;51.472;5.712;2023-04-10T12:52:39;5.47;;;3.60;;
42104;SDS011;68365;51.472;5.712;2023-04-10T12:57:41;4.63;;;3.53;;
42104;SDS011;68365;51.472;5.712;2023-04-10T13:00:12;4.00;;;3.58;;
42104;SDS011;68365;51.472;5.712;2023-04-10T13:02:41;6.05;;;3.60;;
42104;SDS011;68365;51.472;5.712;2023-04-10T13:05:08;3.53;;;3.00;;
42104;SDS011;68365;51.472;5.712;2023-04-10T13:07:35;4.80;;;3.70;;
42104;SDS011;68365;51.472;5.712;2023-04-10T13:10:02;3.75;;;3.33;;
42104;SDS011;68365;51.472;5.712;2023-04-10T13:12:29;4.00;;;3.60;;
42104;SDS011;68365;51.472;5.712;2023-04-10T13:14:56;5.53;;;3.30;;
42104;SDS011;68365;51.472;5.712;2023-04-10T13:17:23;3.83;;;3.13;;
42104;SDS011;68365;51.472;5.712;2023-04-10T13:19:50;4.03;;;3.45;;
42104;SDS011;68365;51.472;5.712;2023-04-10T13:22:16;3.85;;;3.33;;
42104;SDS011;68365;51.472;5.712;2023-04-10T13:24:42;3.95;;;3.55;;
42104;SDS011;68365;51.472;5.712;2023-04-10T13:27:09;3.95;;;3.53;;
42104;SDS011;68365;51.472;5.712;2023-04-10T13:29:35;4.00;;;3.20;;
42104;SDS011;68365;51.472;5.712;2023-04-10T13:32:05;5.68;;;3.60;;
42104;SDS011;68365;51.472;5.712;2023-04-10T13:34:31;3.78;;;3.33;;
42104;SDS011;68365;51.472;5.712;2023-04-10T13:36:57;4.60;;;3.05;;
42104;SDS011;68365;51.472;5.712;2023-04-10T13:39:24;3.85;;;3.45;;
42104;SDS011;68365;51.472;5.712;2023-04-10T13:41:52;4.10;;;2.83;;
42104;SDS011;68365;51.472;5.712;2023-04-10T13:44:18;3.92;;;3.45;;
42104;SDS011;68365;51.472;5.712;2023-04-10T13:46:44;4.13;;;3.28;;
42104;SDS011;68365;51.472;5.712;2023-04-10T13:49:10;4.63;;;3.22;;
42104;SDS011;68365;51.472;5.712;2023-04-10T13:51:35;3.40;;;3.10;;
42104;SDS011;68365;51.472;5.712;2023-04-10T13:54:02;4.00;;;3.17;;
42104;SDS011;68365;51.472;5.712;2023-04-10T13:56:28;4.35;;;2.97;;
42104;SDS011;68365;51.472;5.712;2023-04-10T13:58:54;5.18;;;3.15;;
42104;SDS011;68365;51.472;5.712;2023-04-10T14:01:20;3.78;;;3.20;;
42104;SDS011;68365;51.472;5.712;2023-04-10T14:03:46;6.70;;;3.28;;
42104;SDS011;68365;51.472;5.712;2023-04-10T14:06:12;4.07;;;3.00;;
42104;SDS011;68365;51.472;5.712;2023-04-10T14:08:38;4.03;;;3.10;;
42104;SDS011;68365;51.472;5.712;2023-04-10T14:11:04;3.03;;;2.72;;
42104;SDS011;68365;51.472;5.712;2023-04-10T14:13:30;3.58;;;3.05;;
42104;SDS011;68365;51.472;5.712;2023-04-10T14:15:58;3.88;;;2.83;;
42104;SDS011;68365;51.472;5.712;2023-04-10T14:18:25;5.97;;;2.70;;
42104;SDS011;68365;51.472;5.712;2023-04-10T14:20:51;5.25;;;3.20;;
42104;SDS011;68365;51.472;5.712;2023-04-10T14:23:16;3.60;;;3.08;;
42104;SDS011;68365;51.472;5.712;2023-04-10T14:25:45;7.38;;;3.03;;
42104;SDS011;68365;51.472;5.712;2023-04-10T14:28:13;3.97;;;2.70;;
42104;SDS011;68365;51.472;5.712;2023-04-10T14:30:45;4.95;;;2.63;;
42104;SDS011;68365;51.472;5.712;2023-04-10T14:33:13;4.72;;;2.85;;
42104;SDS011;68365;51.472;5.712;2023-04-10T14:35:39;3.08;;;2.72;;
42104;SDS011;68365;51.472;5.712;2023-04-10T14:38:06;4.85;;;3.10;;
42104;SDS011;68365;51.472;5.712;2023-04-10T14:40:32;3.88;;;2.90;;
42104;SDS011;68365;51.472;5.712;2023-04-10T14:42:58;5.88;;;2.95;;
42104;SDS011;68365;51.472;5.712;2023-04-10T14:45:24;4.18;;;3.00;;
42104;SDS011;68365;51.472;5.712;2023-04-10T14:47:53;3.08;;;2.78;;
42104;SDS011;68365;51.472;5.712;2023-04-10T14:50:19;3.45;;;2.90;;
42104;SDS011;68365;51.472;5.712;2023-04-10T14:52:45;3.28;;;2.80;;
42104;SDS011;68365;51.472;5.712;2023-04-10T14:55:17;3.40;;;3.00;;
42104;SDS011;68365;51.472;5.712;2023-04-10T14:57:43;3.70;;;2.90;;
42104;SDS011;68365;51.472;5.712;2023-04-10T15:00:09;3.85;;;2.92;;
42104;SDS011;68365;51.472;5.712;2023-04-10T15:02:35;5.85;;;2.92;;
42104;SDS011;68365;51.472;5.712;2023-04-10T15:05:02;3.85;;;2.88;;
42104;SDS011;68365;51.472;5.712;2023-04-10T15:07:53;4.18;;;2.70;;
42104;SDS011;68365;51.472;5.712;2023-04-10T15:10:19;3.58;;;3.00;;
42104;SDS011;68365;51.472;5.712;2023-04-10T15:12:45;4.40;;;3.25;;
42104;SDS011;68365;51.472;5.712;2023-04-10T15:15:11;6.38;;;2.80;;
42104;SDS011;68365;51.472;5.712;2023-04-10T15:17:40;4.43;;;2.70;;
42104;SDS011;68365;51.472;5.712;2023-04-10T15:20:06;3.20;;;2.70;;
42104;SDS011;68365;51.472;5.712;2023-04-10T15:22:32;5.03;;;2.83;;
42104;SDS011;68365;51.472;5.712;2023-04-10T15:24:59;2.67;;;2.47;;
42104;SDS011;68365;51.472;5.712;2023-04-10T15:27:25;3.60;;;3.00;;
42104;SDS011;68365;51.472;5.712;2023-04-10T15:29:54;2.67;;;2.45;;
42104;SDS011;68365;51.472;5.712;2023-04-10T15:32:20;3.35;;;2.60;;
42104;SDS011;68365;51.472;5.712;2023-04-10T15:34:45;2.83;;;2.53;;
42104;SDS011;68365;51.472;5.712;2023-04-10T15:37:11;3.70;;;2.58;;